sensor_id;sensor_type;location;lat;lon;timestamp;pressure;altitude;pressure_sealevel;temperature;humidity
13348;BME280;6743;49.934;9.138;2023-03-14T00:01:58;98586.78;;;10.25;100.00
13348;BME280;6743;49.934;9.138;2023-03-14T00:04:24;98589.22;;;10.27;100.00
13348;BME280;6743;49.934;9.138;2023-03-14T00:06:50;98581.09;;;10.29;100.00
13348;BME280;6743;49.934;9.138;2023-03-14T00:09:16;98595.16;;;10.29;100.00
13348;BME280;6743;49.934;9.138;2023-03-14T00:11:42;98598.81;;;10.28;100.00
13348;BME280;6743;49.934;9.138;2023-03-14T00:14:08;98583.13;;;10.26;100.00
13348;BME280;6743;49.934;9.138;2023-03-14T00:16:34;98566.00;;;10.22;100.00
13348;BME280;6743;49.934;9.138;2023-03-14T00:19:01;98572.31;;;10.28;100.00
13348;BME280;6743;49.934;9.138;2023-03-14T00:21:27;98579.25;;;10.29;100.00
13348;BME280;6743;49.934;9.138;2023-03-14T00:23:53;98589.63;;;10.31;100.00
13348;BME280;6743;49.934;9.138;2023-03-14T00:26:20;98582.28;;;10.26;100.00
13348;BME280;6743;49.934;9.138;2023-03-14T00:28:47;98591.87;;;10.34;100.00
13348;BME280;6743;49.934;9.138;2023-03-14T00:31:16;98603.69;;;10.38;100.00
13348;BME280;6743;49.934;9.138;2023-03-14T00:33:43;98614.72;;;10.41;100.00
13348;BME280;6743;49.934;9.138;2023-03-14T00:36:13;98597.59;;;10.44;100.00
13348;BME280;6743;49.934;9.138;2023-03-14T00:38:40;98587.19;;;10.49;100.00
13348;BME280;6743;49.934;9.138;2023-03-14T00:41:08;98586.38;;;10.48;100.00
13348;BME280;6743;49.934;9.138;2023-03-14T00:43:35;98609.41;;;10.54;100.00
13348;BME280;6743;49.934;9.138;2023-03-14T00:46:01;98601.06;;;10.57;100.00
13348;BME280;6743;49.934;9.138;2023-03-14T00:48:27;98593.69;;;10.59;100.00
13348;BME280;6743;49.934;9.138;2023-03-14T00:50:54;98614.09;;;10.59;100.00
13348;BME280;6743;49.934;9.138;2023-03-14T00:53:20;98594.72;;;10.58;100.00
13348;BME280;6743;49.934;9.138;2023-03-14T00:55:48;98595.53;;;10.59;100.00
13348;BME280;6743;49.934;9.138;2023-03-14T00:58:15;98586.75;;;10.58;100.00
13348;BME280;6743;49.934;9.138;2023-03-14T01:00:43;98585.94;;;10.58;100.00
13348;BME280;6743;49.934;9.138;2023-03-14T01:03:10;98570.03;;;10.51;100.00
13348;BME280;6743;49.934;9.138;2023-03-14T01:05:36;98574.31;;;10.59;100.00
13348;BME280;6743;49.934;9.138;2023-03-14T01:08:03;98583.53;;;10.56;100.00
13348;BME280;6743;49.934;9.138;2023-03-14T01:10:30;98572.69;;;10.58;100.00
13348;BME280;6743;49.934;9.138;2023-03-14T01:12:56;98579.84;;;10.57;100.00
13348;BME280;6743;49.934;9.138;2023-03-14T01:15:22;98587.19;;;10.55;100.00
13348;BME280;6743;49.934;9.138;2023-03-14T01:17:48;98587.19;;;10.55;100.00
13348;BME280;6743;49.934;9.138;2023-03-14T01:20:15;98581.69;;;10.57;100.00
13348;BME280;6743;49.934;9.138;2023-03-14T01:22:42;98583.53;;;10.56;100.00
13348;BME280;6743;49.934;9.138;2023-03-14T01:25:09;98587.19;;;10.55;100.00
13348;BME280;6743;49.934;9.138;2023-03-14T01:27:36;98579.03;;;10.50;100.00
13348;BME280;6743;49.934;9.138;2023-03-14T01:30:03;98585.94;;;10.51;100.00
13348;BME280;6743;49.934;9.138;2023-03-14T01:32:29;98584.13;;;10.52;100.00
13348;BME280;6743;49.934;9.138;2023-03-14T01:34:56;98585.75;;;10.53;100.00
13348;BME280;6743;49.934;9.138;2023-03-14T01:37:22;98588.41;;;10.53;100.00
13348;BME280;6743;49.934;9.138;2023-03-14T01:39:48;98588.00;;;10.49;100.00
13348;BME280;6743;49.934;9.138;2023-03-14T01:42:14;98573.13;;;10.48;100.00
13348;BME280;6743;49.934;9.138;2023-03-14T01:44:49;98558.84;;;10.49;100.00
13348;BME280;6743;49.934;9.138;2023-03-14T01:47:15;98562.91;;;10.52;100.00
13348;BME280;6743;49.934;9.138;2023-03-14T01:49:42;98542.94;;;10.49;100.00
13348;BME280;6743;49.934;9.138;2023-03-14T01:52:11;98558.22;;;10.47;100.00
13348;BME280;6743;49.934;9.138;2023-03-14T01:54:40;98529.72;;;10.36;100.00
13348;BME280;6743;49.934;9.138;2023-03-14T01:57:10;98540.88;;;10.45;100.00
13348;BME280;6743;49.934;9.138;2023-03-14T01:59:38;98524.59;;;10.41;100.00
13348;BME280;6743;49.934;9.138;2023-03-14T02:02:11;98527.88;;;10.43;100.00
13348;BME280;6743;49.934;9.138;2023-03-14T02:04:38;98527.25;;;10.41;100.00
13348;BME280;6743;49.934;9.138;2023-03-14T02:07:09;98510.72;;;10.39;100.00
13348;BME280;6743;49.934;9.138;2023-03-14T02:09:38;98500.75;;;10.41;100.00
13348;BME280;6743;49.934;9.138;2023-03-14T02:12:05;98490.53;;;10.38;100.00
13348;BME280;6743;49.934;9.138;2023-03-14T02:14:33;98498.06;;;10.48;100.00
13348;BME280;6743;49.934;9.138;2023-03-14T02:17:00;98477.50;;;10.50;100.00
13348;BME280;6743;49.934;9.138;2023-03-14T02:19:38;98483.59;;;10.50;100.00
13348;BME280;6743;49.934;9.138;2023-03-14T02:22:09;98458.69;;;10.51;100.00
13348;BME280;6743;49.934;9.138;2023-03-14T02:24:42;98451.56;;;10.52;100.00
13348;BME280;6743;49.934;9.138;2023-03-14T02:27:12;98456.47;;;10.48;100.00
13348;BME280;6743;49.934;9.138;2023-03-14T02:29:42;98445.47;;;10.45;100.00
13348;BME280;6743;49.934;9.138;2023-03-14T02:32:10;98455.25;;;10.51;100.00
13348;BME280;6743;49.934;9.138;2023-03-14T02:34:36;98431.19;;;10.46;100.00
13348;BME280;6743;49.934;9.138;2023-03-14T02:37:02;98456.47;;;10.48;100.00
13348;BME280;6743;49.934;9.138;2023-03-14T02:39:35;98449.75;;;10.46;100.00
13348;BME280;6743;49.934;9.138;2023-03-14T02:42:01;98452.81;;;10.49;100.00
13348;BME280;6743;49.934;9.138;2023-03-14T02:44:28;98462.78;;;10.54;100.00
13348;BME280;6743;49.934;9.138;2023-03-14T02:46:54;98469.91;;;10.53;100.00
13348;BME280;6743;49.934;9.138;2023-03-14T02:49:20;98459.75;;;10.50;100.00
13348;BME280;6743;49.934;9.138;2023-03-14T02:51:46;98471.75;;;10.53;100.00
13348;BME280;6743;49.934;9.138;2023-03-14T02:54:14;98476.25;;;10.52;100.00
13348;BME280;6743;49.934;9.138;2023-03-14T02:56:41;98460.13;;;10.54;100.00
13348;BME280;6743;49.934;9.138;2023-03-14T02:59:07;98451.97;;;10.55;100.00
13348;BME280;6743;49.934;9.138;2023-03-14T03:01:34;98449.53;;;10.54;100.00
13348;BME280;6743;49.934;9.138;2023-03-14T03:04:00;98440.13;;;10.51;100.00
13348;BME280;6743;49.934;9.138;2023-03-14T03:06:26;98434.62;;;10.53;100.00
13348;BME280;6743;49.934;9.138;2023-03-14T03:08:52;98447.31;;;10.51;100.00
13348;BME280;6743;49.934;9.138;2023-03-14T03:11:18;98443.44;;;10.47;100.00
13348;BME280;6743;49.934;9.138;2023-03-14T03:13:44;98443.44;;;10.47;100.00
13348;BME280;6743;49.934;9.138;2023-03-14T03:16:10;98455.66;;;10.48;100.00
13348;BME280;6743;49.934;9.138;2023-03-14T03:18:39;98461.97;;;10.47;100.00
13348;BME280;6743;49.934;9.138;2023-03-14T03:21:06;98466.47;;;10.46;100.00
13348;BME280;6743;49.934;9.138;2023-03-14T03:23:34;98449.16;;;10.44;100.00
13348;BME280;6743;49.934;9.138;2023-03-14T03:26:00;98418.00;;;10.26;100.00
13348;BME280;6743;49.934;9.138;2023-03-14T03:28:27;98427.53;;;10.40;100.00
13348;BME280;6743;49.934;9.138;2023-03-14T03:30:53;98437.13;;;10.41;100.00
13348;BME280;6743;49.934;9.138;2023-03-14T03:33:19;98391.09;;;10.16;100.00
13348;BME280;6743;49.934;9.138;2023-03-14T03:35:49;98427.75;;;10.39;100.00
13348;BME280;6743;49.934;9.138;2023-03-14T03:38:16;98444.88;;;10.43;100.00
13348;BME280;6743;49.934;9.138;2023-03-14T03:40:42;98447.53;;;10.43;100.00
13348;BME280;6743;49.934;9.138;2023-03-14T03:43:08;98427.75;;;10.39;100.00
13348;BME280;6743;49.934;9.138;2023-03-14T03:45:37;98432.84;;;10.40;100.00
13348;BME280;6743;49.934;9.138;2023-03-14T03:48:04;98417.56;;;10.36;100.00
13348;BME280;6743;49.934;9.138;2023-03-14T03:50:32;98418.16;;;10.38;100.00
13348;BME280;6743;49.934;9.138;2023-03-14T03:53:03;98406.97;;;10.36;100.00
13348;BME280;6743;49.934;9.138;2023-03-14T03:55:29;98404.72;;;10.33;100.00
13348;BME280;6743;49.934;9.138;2023-03-14T03:57:59;98409.41;;;10.31;100.00
13348;BME280;6743;49.934;9.138;2023-03-14T04:00:25;98412.88;;;10.31;100.00
13348;BME280;6743;49.934;9.138;2023-03-14T04:02:51;98413.69;;;10.32;100.00
13348;BME280;6743;49.934;9.138;2023-03-14T04:05:17;98406.56;;;10.32;100.00
13348;BME280;6743;49.934;9.138;2023-03-14T04:07:43;98399.03;;;10.29;100.00
13348;BME280;6743;49.934;9.138;2023-03-14T04:10:10;98408.63;;;10.30;100.00
13348;BME280;6743;49.934;9.138;2023-03-14T04:12:36;98407.41;;;10.26;100.00
13348;BME280;6743;49.934;9.138;2023-03-14T04:15:03;98405.56;;;10.26;100.00
13348;BME280;6743;49.934;9.138;2023-03-14T04:17:29;98372.75;;;10.08;100.00
13348;BME280;6743;49.934;9.138;2023-03-14T04:19:55;98404.94;;;10.24;100.00
13348;BME280;6743;49.934;9.138;2023-03-14T04:22:21;98408.03;;;10.21;100.00
13348;BME280;6743;49.934;9.138;2023-03-14T04:24:47;98403.13;;;10.18;100.00
13348;BME280;6743;49.934;9.138;2023-03-14T04:27:13;98387.44;;;10.17;100.00
13348;BME280;6743;49.934;9.138;2023-03-14T04:29:40;98379.09;;;10.07;100.00
13348;BME280;6743;49.934;9.138;2023-03-14T04:32:06;98397.41;;;10.15;100.00
13348;BME280;6743;49.934;9.138;2023-03-14T04:34:32;98380.91;;;10.13;100.00
13348;BME280;6743;49.934;9.138;2023-03-14T04:36:58;98395.97;;;10.12;100.00
13348;BME280;6743;49.934;9.138;2023-03-14T04:39:24;98404.94;;;10.11;100.00
13348;BME280;6743;49.934;9.138;2023-03-14T04:41:50;98388.44;;;10.03;100.00
13348;BME280;6743;49.934;9.138;2023-03-14T04:44:18;98392.13;;;10.08;100.00
13348;BME280;6743;49.934;9.138;2023-03-14T04:46:47;98389.25;;;10.10;100.00
13348;BME280;6743;49.934;9.138;2023-03-14T04:49:13;98396.41;;;10.09;100.00
13348;BME280;6743;49.934;9.138;2023-03-14T04:51:39;98385.41;;;10.06;100.00
13348;BME280;6743;49.934;9.138;2023-03-14T04:54:05;98378.06;;;10.08;100.00
13348;BME280;6743;49.934;9.138;2023-03-14T04:56:31;98354.47;;;9.80;100.00
13348;BME280;6743;49.934;9.138;2023-03-14T04:58:57;98388.66;;;10.08;100.00
13348;BME280;6743;49.934;9.138;2023-03-14T05:01:23;98376.44;;;10.07;100.00
13348;BME280;6743;49.934;9.138;2023-03-14T05:03:49;98367.88;;;10.05;100.00
13348;BME280;6743;49.934;9.138;2023-03-14T05:06:15;98369.31;;;10.07;100.00
13348;BME280;6743;49.934;9.138;2023-03-14T05:08:41;98362.16;;;10.08;100.00
13348;BME280;6743;49.934;9.138;2023-03-14T05:11:10;98377.03;;;10.09;100.00
13348;BME280;6743;49.934;9.138;2023-03-14T05:13:36;98370.69;;;10.10;100.00
13348;BME280;6743;49.934;9.138;2023-03-14T05:16:06;98362.75;;;10.10;100.00
13348;BME280;6743;49.934;9.138;2023-03-14T05:18:33;98340.34;;;10.06;100.00
13348;BME280;6743;49.934;9.138;2023-03-14T05:21:00;98346.47;;;10.13;100.00
13348;BME280;6743;49.934;9.138;2023-03-14T05:23:26;98341.78;;;10.15;100.00
13348;BME280;6743;49.934;9.138;2023-03-14T05:25:52;98337.69;;;10.19;100.00
13348;BME280;6743;49.934;9.138;2023-03-14T05:28:18;98329.13;;;10.17;100.00
13348;BME280;6743;49.934;9.138;2023-03-14T05:30:44;98333.63;;;10.16;100.00
13348;BME280;6743;49.934;9.138;2023-03-14T05:33:10;98335.25;;;10.17;100.00
13348;BME280;6743;49.934;9.138;2023-03-14T05:35:37;98325.88;;;10.15;100.00
13348;BME280;6743;49.934;9.138;2023-03-14T05:38:06;98318.75;;;10.15;100.00
13348;BME280;6743;49.934;9.138;2023-03-14T05:40:32;98324.25;;;10.14;100.00
13348;BME280;6743;49.934;9.138;2023-03-14T05:42:58;98327.91;;;10.13;100.00
13348;BME280;6743;49.934;9.138;2023-03-14T05:45:24;98267.53;;;9.70;100.00
13348;BME280;6743;49.934;9.138;2023-03-14T05:47:50;98334.03;;;10.13;100.00
13348;BME280;6743;49.934;9.138;2023-03-14T05:50:16;98327.31;;;10.11;100.00
13348;BME280;6743;49.934;9.138;2023-03-14T05:52:43;98317.75;;;10.03;100.00
13348;BME280;6743;49.934;9.138;2023-03-14T05:55:09;98332.59;;;10.17;100.00
13348;BME280;6743;49.934;9.138;2023-03-14T05:57:35;98336.88;;;10.18;100.00
13348;BME280;6743;49.934;9.138;2023-03-14T06:00:01;98339.53;;;10.18;100.00
13348;BME280;6743;49.934;9.138;2023-03-14T06:02:27;98331.56;;;10.12;100.00
13348;BME280;6743;49.934;9.138;2023-03-14T06:04:53;98330.56;;;10.13;100.00
13348;BME280;6743;49.934;9.138;2023-03-14T06:07:19;98341.16;;;10.26;100.00
13348;BME280;6743;49.934;9.138;2023-03-14T06:09:46;98348.28;;;10.25;100.00
13348;BME280;6743;49.934;9.138;2023-03-14T06:12:12;98339.09;;;10.28;100.00
13348;BME280;6743;49.934;9.138;2023-03-14T06:14:38;98351.53;;;10.27;100.00
13348;BME280;6743;49.934;9.138;2023-03-14T06:17:04;98330.34;;;10.27;100.00
13348;BME280;6743;49.934;9.138;2023-03-14T06:19:30;98337.47;;;10.27;100.00
13348;BME280;6743;49.934;9.138;2023-03-14T06:21:57;98339.72;;;10.30;100.00
13348;BME280;6743;49.934;9.138;2023-03-14T06:24:22;98339.72;;;10.30;100.00
13348;BME280;6743;49.934;9.138;2023-03-14T06:26:49;98337.28;;;10.29;100.00
13348;BME280;6743;49.934;9.138;2023-03-14T06:29:15;98337.28;;;10.29;100.00
13348;BME280;6743;49.934;9.138;2023-03-14T06:31:41;98329.53;;;10.27;100.00
13348;BME280;6743;49.934;9.138;2023-03-14T06:34:07;98336.47;;;10.28;100.00
13348;BME280;6743;49.934;9.138;2023-03-14T06:36:33;98303.06;;;10.14;100.00
13348;BME280;6743;49.934;9.138;2023-03-14T06:39:00;98335.62;;;10.27;100.00
13348;BME280;6743;49.934;9.138;2023-03-14T06:41:26;98327.91;;;10.26;100.00
13348;BME280;6743;49.934;9.138;2023-03-14T06:43:52;98332.19;;;10.27;100.00
13348;BME280;6743;49.934;9.138;2023-03-14T06:46:18;98336.47;;;10.28;100.00
13348;BME280;6743;49.934;9.138;2023-03-14T06:48:44;98329.13;;;10.23;100.00
13348;BME280;6743;49.934;9.138;2023-03-14T06:51:10;98336.47;;;10.28;100.00
13348;BME280;6743;49.934;9.138;2023-03-14T06:53:37;98308.56;;;10.19;100.00
13348;BME280;6743;49.934;9.138;2023-03-14T06:56:03;98329.13;;;10.30;100.00
13348;BME280;6743;49.934;9.138;2023-03-14T06:58:29;98324.41;;;10.32;100.00
13348;BME280;6743;49.934;9.138;2023-03-14T07:00:56;98330.53;;;10.33;100.00
13348;BME280;6743;49.934;9.138;2023-03-14T07:03:22;98326.84;;;10.34;100.00
13348;BME280;6743;49.934;9.138;2023-03-14T07:05:49;98329.69;;;10.32;100.00
13348;BME280;6743;49.934;9.138;2023-03-14T07:08:15;98338.47;;;10.33;100.00
13348;BME280;6743;49.934;9.138;2023-03-14T07:10:41;98337.06;;;10.30;100.00
13348;BME280;6743;49.934;9.138;2023-03-14T07:13:07;98323.41;;;10.26;100.00
13348;BME280;6743;49.934;9.138;2023-03-14T07:15:33;98324.44;;;10.25;100.00
13348;BME280;6743;49.934;9.138;2023-03-14T07:18:00;98320.38;;;10.23;100.00
13348;BME280;6743;49.934;9.138;2023-03-14T07:20:26;98326.69;;;10.22;100.00
13348;BME280;6743;49.934;9.138;2023-03-14T07:22:52;98325.47;;;10.18;100.00
13348;BME280;6743;49.934;9.138;2023-03-14T07:25:18;98327.91;;;10.19;100.00
13348;BME280;6743;49.934;9.138;2023-03-14T07:27:45;98335.25;;;10.17;100.00
13348;BME280;6743;49.934;9.138;2023-03-14T07:30:14;98336.88;;;10.18;100.00
13348;BME280;6743;49.934;9.138;2023-03-14T07:32:40;98335.25;;;10.17;100.00
13348;BME280;6743;49.934;9.138;2023-03-14T07:35:08;98332.81;;;10.16;100.00
13348;BME280;6743;49.934;9.138;2023-03-14T07:37:34;98341.78;;;10.15;100.00
13348;BME280;6743;49.934;9.138;2023-03-14T07:40:00;98334.84;;;10.14;100.00
13348;BME280;6743;49.934;9.138;2023-03-14T07:42:26;98328.53;;;10.08;100.00
13348;BME280;6743;49.934;9.138;2023-03-14T07:44:52;98336.69;;;10.13;100.00
13348;BME280;6743;49.934;9.138;2023-03-14T07:47:18;98331.37;;;10.13;100.00
13348;BME280;6743;49.934;9.138;2023-03-14T07:49:44;98331.37;;;10.13;100.00
13348;BME280;6743;49.934;9.138;2023-03-14T07:52:10;98326.06;;;10.13;100.00
13348;BME280;6743;49.934;9.138;2023-03-14T07:54:36;98319.16;;;10.12;100.00
13348;BME280;6743;49.934;9.138;2023-03-14T07:57:02;98325.25;;;10.13;100.00
13348;BME280;6743;49.934;9.138;2023-03-14T07:59:29;98326.72;;;10.09;100.00
13348;BME280;6743;49.934;9.138;2023-03-14T08:01:55;98327.91;;;10.13;100.00
13348;BME280;6743;49.934;9.138;2023-03-14T08:04:21;98324.44;;;10.12;100.00
13348;BME280;6743;49.934;9.138;2023-03-14T08:06:47;98323.44;;;10.13;100.00
13348;BME280;6743;49.934;9.138;2023-03-14T08:09:13;98322.63;;;10.13;100.00
13348;BME280;6743;49.934;9.138;2023-03-14T08:11:40;98326.50;;;10.17;100.00
13348;BME280;6743;49.934;9.138;2023-03-14T08:14:06;98326.28;;;10.18;100.00
13348;BME280;6743;49.934;9.138;2023-03-14T08:16:32;98325.47;;;10.18;100.00
13348;BME280;6743;49.934;9.138;2023-03-14T08:18:58;98324.25;;;10.20;100.00
13348;BME280;6743;49.934;9.138;2023-03-14T08:21:24;98322.41;;;10.21;100.00
13348;BME280;6743;49.934;9.138;2023-03-14T08:23:50;98337.06;;;10.23;100.00
13348;BME280;6743;49.934;9.138;2023-03-14T08:26:17;98332.37;;;10.25;100.00
13348;BME280;6743;49.934;9.138;2023-03-14T08:28:43;98340.94;;;10.27;100.00
13348;BME280;6743;49.934;9.138;2023-03-14T08:31:09;98338.09;;;10.29;100.00
13348;BME280;6743;49.934;9.138;2023-03-14T08:33:35;98332.34;;;10.32;100.00
13348;BME280;6743;49.934;9.138;2023-03-14T08:36:01;98339.47;;;10.32;100.00
13348;BME280;6743;49.934;9.138;2023-03-14T08:38:27;98336.44;;;10.35;100.00
13348;BME280;6743;49.934;9.138;2023-03-14T08:40:55;98343.94;;;10.38;100.00
13348;BME280;6743;49.934;9.138;2023-03-14T08:43:22;98344.19;;;10.36;100.00
13348;BME280;6743;49.934;9.138;2023-03-14T08:45:48;98346.37;;;10.39;100.00
13348;BME280;6743;49.934;9.138;2023-03-14T08:48:14;98343.75;;;10.39;100.00
13348;BME280;6743;49.934;9.138;2023-03-14T08:50:40;98354.97;;;10.41;100.00
13348;BME280;6743;49.934;9.138;2023-03-14T08:53:06;98357.41;;;10.43;100.00
13348;BME280;6743;49.934;9.138;2023-03-14T08:55:32;98371.47;;;10.43;100.00
13348;BME280;6743;49.934;9.138;2023-03-14T08:57:58;98357.16;;;10.44;100.00
13348;BME280;6743;49.934;9.138;2023-03-14T09:00:25;98365.94;;;10.45;100.00
13348;BME280;6743;49.934;9.138;2023-03-14T09:02:51;98366.56;;;10.47;100.00
13348;BME280;6743;49.934;9.138;2023-03-14T09:05:17;98360.22;;;10.48;100.00
13348;BME280;6743;49.934;9.138;2023-03-14T09:07:43;98367.16;;;10.49;100.00
13348;BME280;6743;49.934;9.138;2023-03-14T09:10:10;98366.34;;;10.48;100.00
13348;BME280;6743;49.934;9.138;2023-03-14T09:12:36;98367.78;;;10.51;100.00
13348;BME280;6743;49.934;9.138;2023-03-14T09:15:02;98362.69;;;10.49;100.00
13348;BME280;6743;49.934;9.138;2023-03-14T09:17:29;98359.22;;;10.49;100.00
13348;BME280;6743;49.934;9.138;2023-03-14T09:19:55;98370.63;;;10.49;100.00
13348;BME280;6743;49.934;9.138;2023-03-14T09:22:21;98358.56;;;10.53;100.00
13348;BME280;6743;49.934;9.138;2023-03-14T09:24:47;98364.47;;;10.55;100.00
13348;BME280;6743;49.934;9.138;2023-03-14T09:27:13;98362.22;;;10.59;100.00
13348;BME280;6743;49.934;9.138;2023-03-14T09:29:39;98349.38;;;10.62;100.00
13348;BME280;6743;49.934;9.138;2023-03-14T09:32:05;98354.22;;;10.65;100.00
13348;BME280;6743;49.934;9.138;2023-03-14T09:34:31;98356.66;;;10.67;100.00
13348;BME280;6743;49.934;9.138;2023-03-14T09:36:57;98353.41;;;10.72;100.00
13348;BME280;6743;49.934;9.138;2023-03-14T09:39:24;98356.81;;;10.79;100.00
13348;BME280;6743;49.934;9.138;2023-03-14T09:41:51;98348.84;;;10.79;100.00
13348;BME280;6743;49.934;9.138;2023-03-14T09:44:21;98349.66;;;10.79;100.00
13348;BME280;6743;49.934;9.138;2023-03-14T09:46:52;98348.84;;;10.85;100.00
13348;BME280;6743;49.934;9.138;2023-03-14T09:49:21;98347.78;;;10.86;100.00
13348;BME280;6743;49.934;9.138;2023-03-14T09:51:52;98345.53;;;10.90;100.00
13348;BME280;6743;49.934;9.138;2023-03-14T09:54:30;98351.47;;;10.92;100.00
13348;BME280;6743;49.934;9.138;2023-03-14T09:56:57;98350.41;;;10.93;100.00
13348;BME280;6743;49.934;9.138;2023-03-14T09:59:23;98361.41;;;10.96;100.00
13348;BME280;6743;49.934;9.138;2023-03-14T10:01:49;98368.16;;;10.99;100.00
13348;BME280;6743;49.934;9.138;2023-03-14T10:04:20;98362.59;;;11.00;100.00
13348;BME280;6743;49.934;9.138;2023-03-14T10:06:48;98358.12;;;11.01;100.00
13348;BME280;6743;49.934;9.138;2023-03-14T10:09:18;98332.25;;;10.96;100.00
13348;BME280;6743;49.934;9.138;2023-03-14T10:11:52;98362.09;;;11.17;100.00
13348;BME280;6743;49.934;9.138;2023-03-14T10:14:29;98351.22;;;11.25;100.00
13348;BME280;6743;49.934;9.138;2023-03-14T10:17:04;98357.91;;;11.34;100.00
13348;BME280;6743;49.934;9.138;2023-03-14T10:19:31;98346.84;;;11.37;100.00
13348;BME280;6743;49.934;9.138;2023-03-14T10:22:00;98351.75;;;11.40;100.00
13348;BME280;6743;49.934;9.138;2023-03-14T10:24:29;98347.66;;;11.37;100.00
13348;BME280;6743;49.934;9.138;2023-03-14T10:26:59;98367.66;;;11.40;100.00
13348;BME280;6743;49.934;9.138;2023-03-14T10:29:28;98355.84;;;11.36;100.00
13348;BME280;6743;49.934;9.138;2023-03-14T10:31:57;98353.84;;;11.31;100.00
13348;BME280;6743;49.934;9.138;2023-03-14T10:34:28;98351.38;;;11.30;100.00
13348;BME280;6743;49.934;9.138;2023-03-14T10:36:57;98359.56;;;11.28;100.00
13348;BME280;6743;49.934;9.138;2023-03-14T10:39:36;98354.31;;;11.22;100.00
13348;BME280;6743;49.934;9.138;2023-03-14T10:42:09;98356.38;;;11.20;100.00
13348;BME280;6743;49.934;9.138;2023-03-14T10:44:38;98363.13;;;11.16;100.00
13348;BME280;6743;49.934;9.138;2023-03-14T10:47:05;98362.97;;;11.11;100.00
13348;BME280;6743;49.934;9.138;2023-03-14T10:49:33;98361.97;;;11.05;100.00
13348;BME280;6743;49.934;9.138;2023-03-14T10:52:14;98367.34;;;10.98;100.00
13348;BME280;6743;49.934;9.138;2023-03-14T10:54:41;98363.66;;;10.93;100.00
13348;BME280;6743;49.934;9.138;2023-03-14T10:57:11;98357.16;;;10.89;100.00
13348;BME280;6743;49.934;9.138;2023-03-14T10:59:39;98358.84;;;10.83;100.00
13348;BME280;6743;49.934;9.138;2023-03-14T11:02:21;98356.03;;;10.78;100.00
13348;BME280;6743;49.934;9.138;2023-03-14T11:04:59;98352.97;;;10.75;100.00
13348;BME280;6743;49.934;9.138;2023-03-14T11:07:33;98353.41;;;10.72;100.00
13348;BME280;6743;49.934;9.138;2023-03-14T11:10:09;98343.41;;;10.67;100.00
13348;BME280;6743;49.934;9.138;2023-03-14T11:12:41;98336.28;;;10.68;100.00
13348;BME280;6743;49.934;9.138;2023-03-14T11:15:15;98334.66;;;10.66;100.00
13348;BME280;6743;49.934;9.138;2023-03-14T11:17:49;98345.69;;;10.63;100.00
13348;BME280;6743;49.934;9.138;2023-03-14T11:20:31;98334.69;;;10.60;100.00
13348;BME280;6743;49.934;9.138;2023-03-14T11:23:02;98336.72;;;10.58;100.00
13348;BME280;6743;49.934;9.138;2023-03-14T11:25:40;98337.97;;;10.55;100.00
13348;BME280;6743;49.934;9.138;2023-03-14T11:28:17;98335.72;;;10.52;100.00
13348;BME280;6743;49.934;9.138;2023-03-14T11:30:50;98331.25;;;10.53;100.00
13348;BME280;6743;49.934;9.138;2023-03-14T11:33:22;98322.91;;;10.49;100.00
13348;BME280;6743;49.934;9.138;2023-03-14T11:35:55;98319.00;;;10.52;100.00
13348;BME280;6743;49.934;9.138;2023-03-14T11:38:29;98306.56;;;10.52;100.00
13348;BME280;6743;49.934;9.138;2023-03-14T11:40:58;98308.00;;;10.55;100.00
13348;BME280;6743;49.934;9.138;2023-03-14T11:43:28;98312.47;;;10.54;100.00
13348;BME280;6743;49.934;9.138;2023-03-14T11:46:01;98320.84;;;10.51;100.00
13348;BME280;6743;49.934;9.138;2023-03-14T11:48:37;98314.97;;;10.49;100.00
13348;BME280;6743;49.934;9.138;2023-03-14T11:51:08;98323.28;;;10.53;100.00
13348;BME280;6743;49.934;9.138;2023-03-14T11:53:45;98311.50;;;10.49;100.00
13348;BME280;6743;49.934;9.138;2023-03-14T11:56:19;98314.97;;;10.49;100.00
13348;BME280;6743;49.934;9.138;2023-03-14T11:58:54;98322.72;;;10.51;100.00
13348;BME280;6743;49.934;9.138;2023-03-14T12:01:25;98329.84;;;10.50;100.00
13348;BME280;6743;49.934;9.138;2023-03-14T12:03:56;98329.84;;;10.50;100.00
13348;BME280;6743;49.934;9.138;2023-03-14T12:06:27;98331.25;;;10.53;100.00
13348;BME280;6743;49.934;9.138;2023-03-14T12:08:58;98331.44;;;10.51;100.00
13348;BME280;6743;49.934;9.138;2023-03-14T12:11:33;98337.97;;;10.55;100.00
13348;BME280;6743;49.934;9.138;2023-03-14T12:14:02;98332.66;;;10.55;100.00
13348;BME280;6743;49.934;9.138;2023-03-14T12:16:34;98340.63;;;10.55;100.00
13348;BME280;6743;49.934;9.138;2023-03-14T12:19:29;98334.31;;;10.56;100.00
13348;BME280;6743;49.934;9.138;2023-03-14T12:22:00;98346.31;;;10.59;100.00
13348;BME280;6743;49.934;9.138;2023-03-14T12:24:29;98341.59;;;10.61;100.00
13348;BME280;6743;49.934;9.138;2023-03-14T12:26:58;98341.19;;;10.64;100.00
13348;BME280;6743;49.934;9.138;2023-03-14T12:29:25;98348.91;;;10.65;100.00
13348;BME280;6743;49.934;9.138;2023-03-14T12:32:07;98348.72;;;10.67;100.00
13348;BME280;6743;49.934;9.138;2023-03-14T12:34:34;98344.63;;;10.71;100.00
13348;BME280;6743;49.934;9.138;2023-03-14T12:37:16;98355.25;;;10.71;100.00
13348;BME280;6743;49.934;9.138;2023-03-14T12:39:47;98367.88;;;10.69;100.00
13348;BME280;6743;49.934;9.138;2023-03-14T12:42:22;98373.19;;;10.69;100.00
13348;BME280;6743;49.934;9.138;2023-03-14T12:45:14;98386.31;;;10.57;100.00
13348;BME280;6743;49.934;9.138;2023-03-14T12:50:41;98481.38;;;10.41;100.00
13348;BME280;6743;49.934;9.138;2023-03-14T12:53:37;98522.53;;;10.10;100.00
13348;BME280;6743;49.934;9.138;2023-03-14T12:56:21;98560.84;;;9.81;100.00
13348;BME280;6743;49.934;9.138;2023-03-14T12:58:59;98582.72;;;9.49;100.00
13348;BME280;6743;49.934;9.138;2023-03-14T13:01:26;98594.06;;;9.30;100.00
13348;BME280;6743;49.934;9.138;2023-03-14T13:03:55;98613.34;;;9.17;100.00
13348;BME280;6743;49.934;9.138;2023-03-14T13:06:48;98631.38;;;9.07;100.00
13348;BME280;6743;49.934;9.138;2023-03-14T13:09:36;98622.00;;;9.04;100.00